This demonstration page uses our WeatherBlox Daily Observations layout. Learn more.

Left ArrowRight Arrow

Hourly Observations for September 4, 2015

Temp ( °F °C ) Dew Point ( °F °C ) Humidity (%) Winds ( mph kmh ) Pressure ( in mb ) Visibility ( mi km ) Precip ( " mm )
12:51 am 00:51 Clear 69 20.6 60 15.6 73 73 E 7 11 29.8 1009 10 16.0934 0 0
1:51 am 01:51 Cloudy 70 21.1 60 15.6 71 71 E 5 7 29.79 1009 10 16.0934 0 0
2:51 am 02:51 Mostly Clear 69 20.6 61 16.1 76 76 E 6 9 29.8 1009 10 16.0934 0 0
3:51 am 03:51 Mostly Cloudy 69 20.6 61 16.1 76 76 ENE 5 7 29.8 1009 10 16.0934 0 0
4:51 am 04:51 Mostly Cloudy 69 20.6 61 16.1 76 76 E 5 7 29.81 1009 10 16.0934 0 0
5:51 am 05:51 Mostly Cloudy 68 20 62 16.7 81 81 SSW 5 7 29.82 1010 10 16.0934 0 0
6:51 am 06:51 Sunny 69 20.6 63 17.2 81 81 Calm 29.85 1011 10 16.0934 0 0
7:51 am 07:51 Sunny 70 21.1 62 16.7 76 76 Calm 29.86 1011 10 16.0934 0 0
8:51 am 08:51 Cloudy with Light Rain 70 21.1 63 17.2 79 79 SSE 8 13 29.89 1012 10 16.0934 0 0.0254
9:51 am 09:51 Cloudy with Light Rain 72 22.2 64 17.8 76 76 E 8 13 29.9 1012 10 16.0934 0 0.0254
10:51 am 10:51 Mostly Cloudy 75 23.9 62 16.7 64 64 ESE 9 15 29.88 1012 10 16.0934 0 0.0254
11:51 am 11:51 Cloudy 77 25 61 16.1 58 58 SE 13 20 29.87 1011 10 16.0934 0 0
12:51 pm 12:51 Partly Cloudy 79 26.1 60 15.6 52 52 E 6 9 29.85 1011 10 16.0934 0 0
1:51 pm 13:51 Partly Cloudy 81 27.2 59 15 47 47 ESE 6 9 29.83 1010 10 16.0934 0 0
2:51 pm 14:51 Sunny 82 27.8 58 14.4 44 44 SSE 10 17 29.81 1009 10 16.0934 0 0
3:51 pm 15:51 Mostly Sunny 82 27.8 58 14.4 44 44 SE 7 11 29.8 1009 10 16.0934 0 0
4:51 pm 16:51 Cloudy with Light Rain 77 25 61 16.1 58 58 S 16 26 29.83 1010 10 16.0934 0 0.0254
5:51 pm 17:51 Sunny 76 24.4 62 16.7 62 62 SSE 14 22 29.84 1011 10 16.0934 0 0.0254
6:51 pm 18:51 Mostly Clear 75 23.9 63 17.2 66 66 SE 13 20 29.86 1011 10 16.0934 0 0
7:51 pm 19:51 Clear 74 23.3 63 17.2 69 69 ESE 13 20 29.86 1011 10 16.0934 0 0
8:51 pm 20:51 Mostly Cloudy with Light Rain 73 22.8 64 17.8 74 74 E 10 17 29.89 1012 10 16.0934 0 0.0254
9:51 pm 21:51 Mostly Clear 72 22.2 64 17.8 76 76 E 12 19 29.88 1012 10 16.0934 0 0.0254
10:51 pm 22:51 Clear 72 22.2 62 16.7 71 71 SE 10 17 29.86 1011 10 16.0934 0 0
11:51 pm 23:51 Clear 70 21.1 64 17.8 82 82 ESE 6 9 29.85 1011 10 16.0934 0 0

Powered by AerisWeather